Time;durP1;ratioP1;P1;durP2;ratioP2;P2;SDS_P1;SDS_P2;PMS_P1;PMS_P2;Temp;Humidity;BMP_temperature;BMP_pressure;BME280_temperature;BME280_humidity;BME280_pressure;Samples;Min_cycle;Max_cycle;Signal;HPM_P1;HPM_P2
2024/02/21 07:01:18;;;;;;;22.98;11.00;;;;;;;4.19;89.17;97179.44;2103488;27;20581;-69
2024/02/21 07:02:20;;;;;;;15.15;4.85;;;;;;;4.28;88.89;97198.28;2103027;28;20206;-69
2024/02/21 07:07:40;;;;;;;13.27;2.35;;;;;;;4.05;90.05;97171.81;2083759;28;20564;-69
2024/02/21 07:08:41;;;;;;;12.63;2.20;;;;;;;4.34;88.70;97180.13;2072355;28;20225;-69
2024/02/21 07:12:04;;;;;;;8.77;2.72;;;;;;;4.72;86.41;97181.38;2085037;28;20557;-69
2024/02/21 07:13:06;;;;;;;11.27;2.13;;;;;;;4.94;85.85;97184.56;2080980;28;20200;-69
2024/02/21 07:15:56;;;;;;;9.32;1.73;;;;;;;5.22;84.51;97179.00;2085589;28;20574;-69
2024/02/21 07:18:15;;;;;;;8.07;2.55;;;;;;;5.27;83.51;97164.25;2083107;28;20565;-67
2024/02/21 07:19:16;;;;;;;15.07;2.50;;;;;;;5.46;82.83;97162.22;2090359;28;20325;-67
2024/02/21 07:20:18;;;;;;;9.93;2.67;;;;;;;5.35;83.52;97167.53;2087152;28;20196;-67
2024/02/21 07:21:20;;;;;;;6.80;2.33;;;;;;;5.85;83.03;97172.78;2082375;28;20204;-68
2024/02/21 07:22:21;;;;;;;9.95;2.17;;;;;;;6.28;80.73;97170.31;2078354;28;20292;-67
2024/02/21 07:23:23;;;;;;;11.82;2.35;;;;;;;6.51;79.26;97168.16;2078494;28;20228;-67
2024/02/21 07:24:24;;;;;;;11.98;2.50;;;;;;;6.77;78.02;97168.50;2082658;28;20717;-67
2024/02/21 07:25:25;;;;;;;7.00;2.83;;;;;;;6.60;78.55;97145.47;2078470;28;20195;-67
2024/02/21 07:26:27;;;;;;;8.88;2.80;;;;;;;6.99;78.01;97161.91;2079038;28;20435;-68
2024/02/21 07:27:31;;;;;;;9.13;2.78;;;;;;;6.87;77.26;97162.22;2080379;28;20203;-67
2024/02/21 07:28:32;;;;;;;7.88;2.33;;;;;;;6.59;77.30;97123.88;2076874;28;20231;-64
2024/02/21 07:29:34;;;;;;;13.02;5.00;;;;;;;6.69;77.30;97161.72;2080235;28;20218;-67
2024/02/21 07:30:36;;;;;;;9.98;2.30;;;;;;;7.19;77.09;97158.03;2081294;28;20235;-63
2024/02/21 07:31:44;;;;;;;19.75;4.70;;;;;;;7.50;76.08;97152.97;2078349;28;20204;-66
2024/02/21 07:32:48;;;;;;;14.27;5.53;;;;;;;7.59;75.35;97146.72;2080051;28;20728;-70
2024/02/21 07:33:50;;;;;;;8.65;2.45;;;;;;;7.41;74.25;97150.59;2080774;28;20224;-68
2024/02/21 07:34:51;;;;;;;8.75;2.40;;;;;;;7.07;74.93;97135.78;2080613;28;20197;-68
2024/02/21 07:35:53;;;;;;;7.68;2.08;;;;;;;7.19;75.22;97142.47;2081988;28;20204;-68
2024/02/21 07:36:57;;;;;;;5.75;1.98;;;;;;;6.43;77.22;97140.63;2081416;28;20240;-68
2024/02/21 07:37:59;;;;;;;8.05;1.83;;;;;;;6.67;77.08;97144.47;2080498;28;20622;-63
2024/02/21 07:39:01;;;;;;;10.15;2.20;;;;;;;6.52;77.22;97138.69;2082153;28;20231;-63
2024/02/21 07:40:04;;;;;;;15.52;2.33;;;;;;;6.41;78.02;97145.00;2082758;28;20654;-63
2024/02/21 07:41:05;;;;;;;8.52;2.42;;;;;;;6.43;78.17;97149.25;2083201;28;20737;-63
2024/02/21 07:42:07;;;;;;;12.43;2.17;;;;;;;6.27;78.42;97140.94;2082297;28;20200;-63
2024/02/21 07:43:08;;;;;;;12.25;2.10;;;;;;;6.10;79.38;97143.84;2080894;28;20261;-63
2024/02/21 07:44:10;;;;;;;30.05;4.32;;;;;;;5.99;80.09;97131.09;2080899;28;20584;-63
2024/02/21 07:45:11;;;;;;;29.77;4.40;;;;;;;6.24;80.05;97145.34;2083670;28;20876;-63
2024/02/21 07:46:13;;;;;;;14.35;2.70;;;;;;;6.46;78.71;97149.22;2080429;28;20243;-63
2024/02/21 07:47:14;;;;;;;12.20;2.15;;;;;;;6.39;78.88;97152.81;2080988;28;20236;-63
2024/02/21 07:48:16;;;;;;;12.20;2.67;;;;;;;6.28;78.98;97154.75;2081849;28;20193;-63
2024/02/21 07:49:18;;;;;;;17.75;2.25;;;;;;;6.10;79.19;97158.56;2080448;28;20310;-63
2024/02/21 07:50:20;;;;;;;12.25;2.38;;;;;;;6.37;78.71;97152.84;2085783;28;20197;-63
2024/02/21 07:51:21;;;;;;;8.05;1.70;;;;;;;6.28;79.08;97128.81;2084576;28;20656;-63
2024/02/21 07:52:23;;;;;;;7.85;2.15;;;;;;;6.32;78.29;97143.44;2084316;28;20258;-69
2024/02/21 07:53:24;;;;;;;12.23;3.30;;;;;;;6.12;78.60;97143.81;2081106;28;20209;-68
2024/02/21 07:54:26;;;;;;;6.25;2.17;;;;;;;6.02;78.98;97143.16;2079433;28;20193;-68
2024/02/21 07:55:27;;;;;;;18.50;3.10;;;;;;;6.03;79.21;97143.13;2082422;28;20276;-68
2024/02/21 07:56:29;;;;;;;13.38;2.15;;;;;;;5.93;79.47;97146.75;2081158;28;20207;-68
2024/02/21 07:57:31;;;;;;;15.93;1.73;;;;;;;5.84;80.27;97146.88;2080979;28;20231;-68
2024/02/21 07:58:32;;;;;;;12.15;2.35;;;;;;;5.76;79.92;97134.06;2083453;28;20237;-67
2024/02/21 07:59:34;;;;;;;11.05;2.28;;;;;;;5.71;80.21;97136.75;2081032;28;20205;-68
2024/02/21 08:00:35;;;;;;;8.93;1.98;;;;;;;5.78;80.56;97141.84;2080666;28;20230;-68
2024/02/21 08:01:37;;;;;;;14.40;2.78;;;;;;;5.92;80.69;97150.19;2081517;28;20682;-68
2024/02/21 08:02:39;;;;;;;10.48;2.00;;;;;;;5.94;80.26;97140.69;2080521;28;20202;-68
2024/02/21 08:03:40;;;;;;;9.85;2.10;;;;;;;5.94;80.52;97135.50;2079925;28;20227;-68
2024/02/21 08:04:42;;;;;;;11.70;2.60;;;;;;;5.93;80.46;97151.91;2081567;28;20650;-68
2024/02/21 08:05:44;;;;;;;8.70;2.15;;;;;;;5.83;80.58;97142.59;2081989;28;20244;-68
2024/02/21 08:06:48;;;;;;;13.93;1.98;;;;;;;5.68;80.71;97141.97;2081444;28;20229;-68
2024/02/21 08:07:50;;;;;;;8.32;2.38;;;;;;;5.75;80.56;97139.28;2082408;28;20289;-68
2024/02/21 08:08:51;;;;;;;12.02;2.30;;;;;;;5.77;81.24;97135.78;2082662;28;20982;-68
2024/02/21 08:09:53;;;;;;;5.25;1.80;;;;;;;6.11;80.70;97136.94;2078277;28;20256;-68
2024/02/21 08:10:54;;;;;;;12.80;2.30;;;;;;;5.97;80.25;97139.75;2079150;28;20209;-68
2024/02/21 08:11:56;;;;;;;5.63;2.45;;;;;;;6.08;80.30;97145.59;2081427;28;20703;-68
2024/02/21 08:12:57;;;;;;;18.70;2.50;;;;;;;6.19;80.41;97135.88;2080225;28;20203;-68
2024/02/21 08:13:59;;;;;;;8.07;2.00;;;;;;;6.26;79.81;97117.63;2080585;28;20614;-67
2024/02/21 08:15:03;;;;;;;6.80;2.05;;;;;;;6.43;78.80;97136.28;2082188;28;20203;-67
2024/02/21 08:16:05;;;;;;;11.85;2.83;;;;;;;6.51;77.85;97129.22;2082023;28;20203;-67
2024/02/21 08:17:06;;;;;;;17.23;2.00;;;;;;;6.54;78.75;97128.31;2082224;28;20198;-67
2024/02/21 08:18:08;;;;;;;6.45;2.22;;;;;;;6.51;78.48;97118.84;2077789;28;20324;-67
2024/02/21 08:19:10;;;;;;;9.65;1.85;;;;;;;6.58;78.26;97131.66;2076103;28;20216;-68
2024/02/21 08:20:12;;;;;;;8.07;1.88;;;;;;;6.59;77.42;97133.38;2081126;28;20198;-67
2024/02/21 08:21:13;;;;;;;12.90;3.00;;;;;;;6.52;77.62;97130.06;2081825;28;20231;-68
2024/02/21 08:22:16;;;;;;;12.95;2.30;;;;;;;6.59;77.26;97129.06;2081497;28;20533;-68
2024/02/21 08:23:18;;;;;;;7.78;1.90;;;;;;;6.65;77.59;97128.94;2079328;28;20280;-67
2024/02/21 08:24:22;;;;;;;8.80;2.20;;;;;;;6.91;76.74;97134.41;2079645;28;20270;-68
2024/02/21 08:25:24;;;;;;;12.68;2.33;;;;;;;6.79;76.89;97126.03;2081603;28;20211;-68
2024/02/21 08:26:28;;;;;;;7.78;1.85;;;;;;;6.79;77.03;97127.75;2082442;28;20188;-67
2024/02/21 08:27:29;;;;;;;8.65;2.38;;;;;;;7.10;77.02;97120.16;2080288;28;20288;-68
2024/02/21 08:28:31;;;;;;;7.85;2.00;;;;;;;7.00;75.89;97123.84;2080048;28;20194;-69
2024/02/21 08:29:33;;;;;;;11.82;2.63;;;;;;;6.97;76.04;97119.56;2073128;28;20288;-68
2024/02/21 08:30:34;;;;;;;9.98;2.65;;;;;;;7.11;75.98;97120.97;2073988;28;20197;-67
2024/02/21 08:31:36;;;;;;;6.38;1.90;;;;;;;7.16;75.88;97120.00;2074212;28;20327;-68
2024/02/21 08:32:37;;;;;;;13.35;2.15;;;;;;;7.36;76.10;97121.25;2076198;28;20697;-68
2024/02/21 08:33:39;;;;;;;8.77;2.05;;;;;;;7.32;75.98;97114.44;2075835;28;20211;-68
2024/02/21 08:34:41;;;;;;;14.52;2.78;;;;;;;7.19;76.55;97114.72;2076740;28;20231;-68
2024/02/21 08:35:43;;;;;;;9.77;2.13;;;;;;;7.14;76.09;97106.19;2077574;28;20981;-68
2024/02/21 08:36:44;;;;;;;16.65;3.10;;;;;;;7.18;76.39;97110.41;2084975;28;20263;-68
2024/02/21 08:37:47;;;;;;;12.05;1.80;;;;;;;7.22;75.77;97107.75;2082370;28;20263;-68
2024/02/21 08:38:49;;;;;;;12.20;2.60;;;;;;;7.17;75.55;97106.13;2075421;28;20222;-68
2024/02/21 08:39:51;;;;;;;10.70;2.15;;;;;;;7.06;76.43;97105.53;2077024;28;20206;-68
2024/02/21 08:40:52;;;;;;;6.30;2.20;;;;;;;7.14;76.61;97110.53;2075089;28;20233;-68
2024/02/21 08:41:54;;;;;;;7.10;1.90;;;;;;;7.09;77.09;97108.03;2076044;28;20597;-68
2024/02/21 08:42:58;;;;;;;11.25;2.58;;;;;;;6.98;77.22;97103.13;2076260;28;20197;-67
2024/02/21 08:44:00;;;;;;;7.60;2.05;;;;;;;6.84;77.12;97100.84;2075965;28;20229;-68
2024/02/21 08:45:03;;;;;;;9.10;2.75;;;;;;;6.80;77.60;97100.94;2072632;28;20251;-68
2024/02/21 08:46:05;;;;;;;15.50;3.95;;;;;;;6.63;78.18;97104.75;2075131;28;20744;-68
2024/02/21 08:47:07;;;;;;;16.60;2.40;;;;;;;6.85;78.09;97105.09;2076064;28;20633;-62
2024/02/21 08:48:09;;;;;;;22.23;7.70;;;;;;;6.85;78.16;97099.91;2076171;28;20197;-65
2024/02/21 08:49:18;;;;;;;25.73;9.77;;;;;;;6.85;78.61;97099.91;2071942;28;20240;-64
2024/02/21 08:50:19;;;;;;;24.77;10.63;;;;;;;6.75;78.27;97094.97;2075111;28;20663;-66
2024/02/21 08:51:29;;;;;;;16.30;4.13;;;;;;;6.80;78.44;97095.72;2075098;28;20201;-65
2024/02/21 08:52:31;;;;;;;15.52;7.32;;;;;;;6.88;78.38;97101.59;2078610;28;20201;-65
2024/02/21 08:53:33;;;;;;;12.07;3.30;;;;;;;6.86;78.40;97095.59;2075471;28;20194;-65
2024/02/21 08:54:34;;;;;;;7.75;2.15;;;;;;;6.70;77.33;97077.78;2075923;28;20296;-65
2024/02/21 08:55:36;;;;;;;16.50;2.60;;;;;;;6.65;77.27;97095.19;2075662;28;20229;-65
2024/02/21 08:56:38;;;;;;;13.15;3.88;;;;;;;6.77;77.68;97086.28;2075435;28;20204;-65
2024/02/21 08:57:39;;;;;;;7.53;2.53;;;;;;;6.80;77.52;97086.19;2077027;28;20211;-65
2024/02/21 08:58:41;;;;;;;9.88;1.85;;;;;;;6.75;77.97;97080.25;2075001;28;20263;-65
2024/02/21 08:59:42;;;;;;;11.82;2.42;;;;;;;6.75;77.45;97087.19;2075075;28;20204;-65
2024/02/21 09:00:43;;;;;;;12.02;2.55;;;;;;;6.73;78.36;97089.84;2074295;28;20553;-65
2024/02/21 09:01:45;;;;;;;8.85;2.33;;;;;;;6.67;78.08;97067.44;2073650;28;20556;-65
2024/02/21 09:02:47;;;;;;;13.25;2.65;;;;;;;6.78;79.10;97079.31;2074547;28;20189;-64
2024/02/21 09:03:52;;;;;;;10.48;2.33;;;;;;;6.90;79.01;97075.63;2071866;28;20220;-65
2024/02/21 09:04:54;;;;;;;6.90;2.20;;;;;;;6.89;78.91;97073.91;2072619;28;20708;-65
2024/02/21 09:05:55;;;;;;;12.23;2.30;;;;;;;6.89;78.66;97079.94;2073249;28;20211;-65
2024/02/21 09:06:57;;;;;;;12.57;2.90;;;;;;;7.07;78.02;97083.00;2073406;28;20679;-65
2024/02/21 09:07:58;;;;;;;11.57;2.30;;;;;;;6.94;77.23;97078.09;2073343;28;20263;-65
2024/02/21 09:09:00;;;;;;;12.40;2.42;;;;;;;6.94;77.52;97078.09;2075495;28;20754;-65
2024/02/21 09:10:02;;;;;;;8.38;2.15;;;;;;;7.08;78.16;97088.16;2072451;28;20689;-65
2024/02/21 09:11:06;;;;;;;13.38;2.63;;;;;;;6.99;78.44;97072.78;2075412;28;20204;-65
2024/02/21 09:12:07;;;;;;;14.85;2.00;;;;;;;7.16;78.23;97064.59;2076506;28;20242;-65
2024/02/21 09:13:09;;;;;;;9.43;2.35;;;;;;;7.40;77.67;97086.50;2075887;28;20202;-65
2024/02/21 09:14:10;;;;;;;17.55;2.60;;;;;;;7.41;75.49;97077.81;2072833;28;20255;-65
2024/02/21 09:15:12;;;;;;;10.57;2.03;;;;;;;7.42;76.21;97073.50;2074005;28;20408;-65
2024/02/21 09:16:13;;;;;;;14.40;2.20;;;;;;;7.52;75.29;97072.38;2078003;28;20205;-65
2024/02/21 09:17:17;;;;;;;6.57;1.73;;;;;;;7.70;75.71;97068.44;2076003;28;20197;-65
2024/02/21 09:18:18;;;;;;;11.85;2.60;;;;;;;7.87;75.54;97064.53;2074774;28;20198;-65
2024/02/21 09:19:20;;;;;;;8.13;2.17;;;;;;;8.03;74.38;97063.22;2074648;28;20757;-66
2024/02/21 09:20:22;;;;;;;11.95;1.90;;;;;;;8.00;73.12;97071.97;2073791;28;20194;-66
2024/02/21 09:21:24;;;;;;;14.05;2.40;;;;;;;8.21;73.26;97072.25;2074229;28;20194;-65
2024/02/21 09:22:25;;;;;;;17.17;2.50;;;;;;;8.28;73.00;97036.50;2075240;28;20783;-65
2024/02/21 09:23:27;;;;;;;8.38;2.60;;;;;;;8.64;72.66;97062.38;2073769;28;20802;-65
2024/02/21 09:24:28;;;;;;;14.30;2.80;;;;;;;8.95;72.35;97079.63;2072054;28;20281;-65
2024/02/21 09:25:31;;;;;;;12.05;2.72;;;;;;;8.94;70.74;97070.16;2075682;28;20292;-65
2024/02/21 09:26:33;;;;;;;14.38;3.45;;;;;;;8.96;71.71;97069.19;2076233;28;20563;-65
2024/02/21 09:27:34;;;;;;;14.05;2.75;;;;;;;8.86;71.00;97070.34;2076138;28;20198;-66
2024/02/21 09:28:36;;;;;;;12.35;2.50;;;;;;;9.33;69.84;97064.53;2069648;28;20687;-65
2024/02/21 09:29:39;;;;;;;10.57;2.80;;;;;;;9.17;70.28;97052.91;2074188;28;20307;-65
2024/02/21 09:30:41;;;;;;;11.90;2.10;;;;;;;9.58;69.38;97067.16;2075854;28;20197;-66
2024/02/21 09:31:42;;;;;;;11.55;2.03;;;;;;;9.72;67.78;97055.41;2076666;28;20291;-65
2024/02/21 09:32:44;;;;;;;9.52;2.35;;;;;;;9.91;68.27;97063.44;2075912;28;20657;-65
2024/02/21 09:33:46;;;;;;;6.70;1.90;;;;;;;9.93;66.91;97061.66;2075769;28;20221;-65
2024/02/21 09:34:47;;;;;;;11.55;3.08;;;;;;;10.10;67.39;97058.44;2075675;28;20197;-60
2024/02/21 09:35:49;;;;;;;26.52;8.48;;;;;;;10.05;67.73;97055.97;2076087;28;20195;-60
2024/02/21 09:36:52;;;;;;;18.95;7.28;;;;;;;10.27;66.40;97060.41;2075036;28;20286;-60
2024/02/21 09:37:54;;;;;;;7.50;2.30;;;;;;;10.40;65.43;97059.09;2078006;28;20198;-60
2024/02/21 09:38:55;;;;;;;9.52;2.83;;;;;;;10.78;65.01;97041.09;2073681;28;20264;-59
2024/02/21 09:39:57;;;;;;;7.97;2.45;;;;;;;10.99;63.55;97053.38;2076228;28;20698;-59
2024/02/21 09:41:03;;;;;;;10.15;1.80;;;;;;;11.27;63.79;97053.13;2074757;28;20281;-60
2024/02/21 09:42:11;;;;;;;18.08;2.65;;;;;;;11.13;63.03;97045.00;2075038;28;20200;-60
2024/02/21 09:43:17;;;;;;;9.93;1.90;;;;;;;11.00;63.03;97035.03;2076231;28;20223;-60
2024/02/21 09:44:19;;;;;;;16.25;2.00;;;;;;;10.78;63.63;97006.31;2073811;28;20724;-59
2024/02/21 09:45:23;;;;;;;14.52;2.50;;;;;;;11.28;61.48;97033.91;2073594;28;20199;-60
2024/02/21 09:46:44;;;;;;;10.35;1.98;;;;;;;11.42;62.41;97036.78;2079572;28;20210;-60
2024/02/21 09:48:01;;;;;;;7.47;1.80;;;;;;;11.60;61.11;97043.03;2080164;28;20813;-59
2024/02/21 09:49:21;;;;;;;10.05;2.10;;;;;;;11.57;61.19;97035.28;2071889;28;20306;-60
2024/02/21 09:50:24;;;;;;;9.45;2.38;;;;;;;11.78;60.85;97032.66;2076124;28;20205;-59
2024/02/21 09:51:30;;;;;;;7.28;2.25;;;;;;;12.08;60.03;97034.91;2074602;28;20201;-59
2024/02/21 09:52:35;;;;;;;5.60;1.80;;;;;;;12.11;60.28;97024.28;2074066;28;20276;-59
2024/02/21 09:53:38;;;;;;;7.70;1.70;;;;;;;11.97;59.94;97026.66;2075039;28;20243;-60
2024/02/21 09:54:41;;;;;;;7.50;2.22;;;;;;;11.85;61.29;97034.09;2074217;28;20197;-59
2024/02/21 09:55:43;;;;;;;5.70;1.67;;;;;;;11.93;60.99;97033.78;2075238;28;20266;-59
2024/02/21 09:56:46;;;;;;;10.05;2.67;;;;;;;11.70;60.93;97016.47;2075321;28;20198;-59
2024/02/21 09:57:49;;;;;;;15.48;2.53;;;;;;;11.74;60.86;97031.97;2074915;28;20284;-59
2024/02/21 09:58:51;;;;;;;12.90;1.80;;;;;;;11.36;60.97;97028.34;2071154;28;20252;-59
2024/02/21 09:59:55;;;;;;;12.10;2.00;;;;;;;11.22;61.85;97029.78;2073081;28;20200;-60
2024/02/21 10:00:58;;;;;;;7.60;1.73;;;;;;;11.08;62.32;97029.50;2075708;28;20234;-60
2024/02/21 10:02:00;;;;;;;9.23;2.05;;;;;;;10.75;62.55;97030.78;2075162;28;20201;-59
2024/02/21 10:03:08;;;;;;;12.95;2.20;;;;;;;10.84;62.62;97020.88;2071749;28;20194;-59
2024/02/21 10:04:10;;;;;;;8.45;1.60;;;;;;;10.90;62.90;97024.09;2073451;28;20315;-59
2024/02/21 10:05:12;;;;;;;9.82;2.33;;;;;;;10.85;62.44;97020.81;2074953;28;20827;-59
2024/02/21 10:06:13;;;;;;;10.40;2.25;;;;;;;10.64;63.55;97017.31;2083584;28;20226;-59
2024/02/21 10:07:15;;;;;;;7.60;2.00;;;;;;;11.08;63.69;97012.06;2083737;28;20197;-59
2024/02/21 10:08:17;;;;;;;8.07;2.03;;;;;;;10.42;63.06;97010.28;2072960;28;20262;-60
2024/02/21 10:09:23;;;;;;;16.02;2.70;;;;;;;10.58;63.77;97013.16;2071899;28;20211;-60
2024/02/21 10:10:27;;;;;;;9.38;1.60;;;;;;;10.76;63.99;97013.34;2074723;28;20200;-59
2024/02/21 10:11:28;;;;;;;15.65;2.65;;;;;;;10.32;64.50;97021.94;2076195;28;20247;-60
2024/02/21 10:12:30;;;;;;;5.85;1.95;;;;;;;10.77;63.54;97013.28;2075056;28;20260;-59
2024/02/21 10:13:31;;;;;;;12.55;2.50;;;;;;;10.89;64.08;97017.19;2075212;28;20293;-60
2024/02/21 10:14:33;;;;;;;10.07;2.90;;;;;;;10.67;62.95;97013.72;2075448;28;20196;-59
2024/02/21 10:15:34;;;;;;;9.88;1.83;;;;;;;10.81;63.59;97014.00;2076455;28;20555;-59
2024/02/21 10:16:37;;;;;;;8.65;2.20;;;;;;;10.89;63.15;97006.72;2077181;28;20206;-59
2024/02/21 10:17:40;;;;;;;8.07;1.90;;;;;;;10.97;62.28;97009.03;2075170;28;20226;-59
2024/02/21 10:18:41;;;;;;;16.75;2.53;;;;;;;10.75;62.96;96993.34;2071157;28;20203;-60
2024/02/21 10:19:43;;;;;;;8.50;2.00;;;;;;;10.62;63.61;97006.06;2071961;28;20282;-60
2024/02/21 10:20:45;;;;;;;7.88;2.10;;;;;;;10.82;62.04;96996.56;2074527;28;20242;-59
2024/02/21 10:22:04;;;;;;;7.15;2.13;;;;;;;10.88;63.34;96991.97;2076087;28;20199;-70
2024/02/21 10:23:09;;;;;;;20.30;2.13;;;;;;;10.86;62.39;97001.63;2075723;28;20282;-70
2024/02/21 10:24:12;;;;;;;15.13;2.13;;;;;;;10.95;62.06;96997.78;2074133;28;20293;-70
2024/02/21 10:25:14;;;;;;;9.50;1.80;;;;;;;11.06;62.97;96992.13;2076028;28;20301;-70
2024/02/21 10:26:17;;;;;;;12.32;1.95;;;;;;;10.97;62.42;96989.88;2075533;28;20196;-71
2024/02/21 10:27:19;;;;;;;8.15;2.20;;;;;;;10.83;63.03;96987.81;2075941;28;20274;-70
2024/02/21 10:28:23;;;;;;;7.38;2.08;;;;;;;10.88;63.74;96988.47;2075870;28;20345;-70
2024/02/21 10:29:24;;;;;;;6.80;2.20;;;;;;;10.81;63.29;96981.81;2075230;28;20210;-71
2024/02/21 10:30:26;;;;;;;11.27;2.65;;;;;;;10.84;63.36;96990.34;2072809;28;20749;-71
2024/02/21 10:31:28;;;;;;;9.05;2.00;;;;;;;10.87;62.92;96979.81;2071854;28;20204;-70
2024/02/21 10:32:30;;;;;;;6.90;1.88;;;;;;;11.00;62.64;96984.53;2073900;28;20234;-70
2024/02/21 10:33:32;;;;;;;6.95;2.13;;;;;;;11.20;62.46;96984.56;2074492;28;20273;-70
2024/02/21 10:34:35;;;;;;;6.00;2.13;;;;;;;11.16;62.69;96983.00;2074125;28;20770;-70
2024/02/21 10:35:36;;;;;;;7.78;2.00;;;;;;;11.27;61.86;96990.38;2075680;28;20277;-70
2024/02/21 10:36:38;;;;;;;7.88;1.95;;;;;;;11.09;61.69;96979.75;2076955;28;20195;-70
2024/02/21 10:37:40;;;;;;;11.90;1.90;;;;;;;11.26;62.22;96986.91;2076425;28;20203;-72
2024/02/21 10:38:41;;;;;;;11.38;2.55;;;;;;;11.30;62.19;96987.66;2071254;28;20222;-70
2024/02/21 10:39:44;;;;;;;12.48;2.05;;;;;;;11.23;61.54;96973.13;2073914;28;20252;-70
2024/02/21 10:40:48;;;;;;;12.82;2.45;;;;;;;11.34;62.31;96978.75;2075215;28;20201;-70
2024/02/21 10:41:51;;;;;;;11.95;2.08;;;;;;;11.13;62.25;96966.59;2074994;28;20200;-70
2024/02/21 10:42:59;;;;;;;8.88;1.80;;;;;;;10.90;62.55;96969.22;2076396;28;21144;-70
2024/02/21 10:44:05;;;;;;;4.97;1.77;;;;;;;10.64;63.63;96964.19;2070448;28;20311;-70
2024/02/21 10:45:07;;;;;;;13.40;1.83;;;;;;;10.93;63.64;96965.63;2072028;28;20793;-70
2024/02/21 10:46:10;;;;;;;8.30;2.33;;;;;;;10.74;63.30;96952.47;2075354;28;20284;-71
2024/02/21 10:47:16;;;;;;;9.38;1.85;;;;;;;10.65;63.24;96956.28;2075450;28;20185;-71
2024/02/21 10:48:28;;;;;;;4.32;1.58;;;;;;;10.62;63.31;96967.72;2075937;28;20239;-71
2024/02/21 10:49:31;;;;;;;9.43;2.38;;;;;;;10.85;63.08;96965.94;2077266;28;20253;-60
2024/02/21 10:50:44;;;;;;;11.68;2.20;;;;;;;10.62;63.75;96964.25;2074943;28;20215;-60
2024/02/21 10:51:47;;;;;;;13.82;2.60;;;;;;;10.76;63.42;96955.88;2074980;28;20245;-60
2024/02/21 10:52:59;;;;;;;6.32;1.73;;;;;;;10.75;63.35;96952.44;2073394;28;20598;-60
2024/02/21 10:54:28;;;;;;;6.88;1.80;;;;;;;10.66;63.32;96955.38;2073673;28;20697;-60
2024/02/21 10:55:39;;;;;;;6.35;1.70;;;;;;;10.49;63.17;96957.81;2074143;28;20309;-60
2024/02/21 10:56:41;;;;;;;12.23;2.03;;;;;;;10.19;63.47;96956.31;2073800;28;20201;-60
2024/02/21 10:57:43;;;;;;;6.70;1.80;;;;;;;10.39;62.97;96958.19;2074222;28;20238;-60
2024/02/21 10:58:45;;;;;;;14.10;2.22;;;;;;;10.57;62.81;96955.75;2074989;28;20241;-60
2024/02/21 10:59:48;;;;;;;13.55;2.00;;;;;;;10.61;63.31;96960.81;2075484;28;20433;-60
2024/02/21 11:00:50;;;;;;;6.32;1.95;;;;;;;10.80;62.46;96949.59;2074161;28;20233;-60
2024/02/21 11:01:52;;;;;;;6.68;1.75;;;;;;;11.04;62.59;96939.91;2077446;28;20703;-60
2024/02/21 11:02:54;;;;;;;5.55;1.65;;;;;;;10.81;62.83;96951.31;2067856;28;20202;-60
2024/02/21 11:03:58;;;;;;;4.22;1.92;;;;;;;10.67;62.62;96932.75;2073978;28;20223;-60
2024/02/21 11:05:03;;;;;;;7.38;1.50;;;;;;;10.74;62.40;96948.09;2074634;28;20205;-62
2024/02/21 11:06:05;;;;;;;14.10;5.15;;;;;;;10.85;62.43;96945.03;2074805;28;20200;-60
2024/02/21 11:07:07;;;;;;;14.35;5.43;;;;;;;10.75;62.47;96936.75;2074282;28;20207;-60
2024/02/21 11:08:12;;;;;;;11.20;3.13;;;;;;;10.71;62.53;96931.72;2074841;28;20201;-60
2024/02/21 11:09:17;;;;;;;9.90;3.67;;;;;;;10.71;62.66;96935.16;2073475;28;20223;-60
2024/02/21 11:10:26;;;;;;;12.65;4.85;;;;;;;11.05;62.39;96931.16;2073519;28;20227;-60
2024/02/21 11:11:27;;;;;;;4.35;1.65;;;;;;;10.93;61.47;96926.44;2072638;28;20204;-69
2024/02/21 11:12:40;;;;;;;11.52;2.13;;;;;;;11.02;61.44;96928.69;2075049;28;20198;-69
2024/02/21 11:13:42;;;;;;;10.40;3.60;;;;;;;11.04;62.34;96912.94;2074964;28;20225;-69
2024/02/21 11:14:44;;;;;;;13.32;1.80;;;;;;;10.95;61.96;96917.63;2073519;28;20204;-69
2024/02/21 11:15:47;;;;;;;7.03;2.10;;;;;;;10.93;61.55;96913.38;2073738;28;20190;-69
2024/02/21 11:16:49;;;;;;;6.22;2.25;;;;;;;11.00;61.81;96921.81;2073853;28;20228;-69
2024/02/21 11:17:55;;;;;;;11.35;2.63;;;;;;;11.03;61.75;96911.22;2074373;28;20715;-69
2024/02/21 11:19:10;;;;;;;4.90;1.55;;;;;;;10.79;61.50;96916.56;2074032;28;20235;-69
2024/02/21 11:20:13;;;;;;;5.50;1.27;;;;;;;10.79;61.73;96911.34;2074587;28;20309;-61
2024/02/21 11:21:15;;;;;;;7.13;1.60;;;;;;;10.70;62.07;96909.09;2074669;28;20208;-61
2024/02/21 11:22:19;;;;;;;4.20;1.45;;;;;;;10.88;62.05;96913.59;2073113;28;20305;-59
2024/02/21 11:23:26;;;;;;;6.22;1.75;;;;;;;10.64;61.86;96914.56;2074694;28;20678;-59
2024/02/21 11:24:31;;;;;;;7.00;2.00;;;;;;;10.42;62.43;96908.47;2074713;28;20223;-59
2024/02/21 11:25:33;;;;;;;9.60;1.60;;;;;;;10.13;62.52;96896.50;2074131;28;20758;-62
2024/02/21 11:26:43;;;;;;;9.63;1.60;;;;;;;10.25;63.16;96898.66;2074618;28;20256;-62
2024/02/21 11:27:48;;;;;;;7.35;1.65;;;;;;;10.34;63.99;96901.81;2075540;28;20700;-61
2024/02/21 11:28:57;;;;;;;5.35;1.70;;;;;;;10.55;63.38;96890.56;2075388;28;20252;-62
2024/02/21 11:29:59;;;;;;;10.75;1.55;;;;;;;10.66;63.31;96894.47;2074891;28;20194;-62
2024/02/21 11:31:15;;;;;;;9.93;1.73;;;;;;;10.62;62.69;96894.59;2074551;28;20234;-62
2024/02/21 11:32:21;;;;;;;5.80;1.60;;;;;;;10.57;62.73;96893.09;2076615;28;20839;-62
2024/02/21 11:33:23;;;;;;;8.90;2.05;;;;;;;10.65;62.14;96895.38;2072651;28;20829;-62
2024/02/21 11:34:25;;;;;;;2.78;1.27;;;;;;;10.43;63.47;96878.00;2073496;28;20257;-62
2024/02/21 11:35:31;;;;;;;5.90;1.40;;;;;;;10.52;63.41;96874.16;2075543;28;20242;-62
2024/02/21 11:36:33;;;;;;;11.98;1.70;;;;;;;10.63;62.98;96871.97;2071419;28;20203;-62
2024/02/21 11:37:38;;;;;;;6.60;1.67;;;;;;;10.54;63.19;96882.75;2073487;28;20589;-61
2024/02/21 11:38:40;;;;;;;8.93;1.70;;;;;;;10.61;63.38;96879.00;2074689;28;20200;-62
2024/02/21 11:39:42;;;;;;;3.55;1.38;;;;;;;10.60;63.47;96879.91;2076178;28;20219;-62
2024/02/21 11:40:46;;;;;;;4.90;1.60;;;;;;;10.66;62.88;96868.38;2073653;28;20199;-62
2024/02/21 11:42:00;;;;;;;7.05;1.73;;;;;;;10.76;63.01;96872.28;2074010;28;20254;-62
2024/02/21 11:43:02;;;;;;;8.88;1.95;;;;;;;10.72;62.16;96861.13;2074001;28;20282;-63
2024/02/21 11:44:03;;;;;;;7.43;1.70;;;;;;;10.73;62.09;96868.03;2075096;28;20268;-63
2024/02/21 11:45:06;;;;;;;4.28;1.40;;;;;;;10.67;62.23;96860.47;2073274;28;20264;-59
2024/02/21 11:46:09;;;;;;;6.80;2.67;;;;;;;10.78;62.05;96867.88;2074460;28;20310;-60
2024/02/21 11:47:10;;;;;;;5.88;1.77;;;;;;;11.02;62.07;96858.13;2071041;28;20196;-60
2024/02/21 11:48:13;;;;;;;6.15;1.70;;;;;;;10.98;61.10;96859.16;2072162;28;20211;-68
2024/02/21 11:49:15;;;;;;;4.55;1.10;;;;;;;11.02;60.98;96855.53;2073654;28;20220;-67
2024/02/21 11:50:17;;;;;;;15.35;2.17;;;;;;;11.15;61.21;96849.75;2075700;28;20535;-67
2024/02/21 11:51:25;;;;;;;5.55;1.40;;;;;;;11.16;60.22;96852.31;2074754;28;20192;-68
2024/02/21 11:52:27;;;;;;;7.50;1.80;;;;;;;11.42;61.03;96843.28;2074691;28;20293;-67
2024/02/21 11:53:30;;;;;;;6.47;1.35;;;;;;;11.66;60.30;96852.72;2073311;28;20699;-66
2024/02/21 11:54:36;;;;;;;4.20;1.35;;;;;;;11.58;59.59;96855.69;2075665;28;20214;-67
2024/02/21 11:55:37;;;;;;;6.65;1.40;;;;;;;11.50;59.15;96853.41;2073758;28;20196;-67
2024/02/21 11:56:39;;;;;;;6.53;1.80;;;;;;;11.35;60.03;96833.19;2077576;28;20231;-67
2024/02/21 11:57:42;;;;;;;8.10;1.48;;;;;;;11.53;60.10;96839.34;2075127;28;20201;-67
2024/02/21 11:58:47;;;;;;;5.47;1.30;;;;;;;11.63;59.73;96847.63;2074213;28;20200;-67
2024/02/21 11:59:51;;;;;;;7.43;1.60;;;;;;;11.63;58.68;96845.88;2075518;28;20601;-67
2024/02/21 12:00:59;;;;;;;7.95;2.00;;;;;;;11.76;58.89;96841.75;2074810;28;20196;-67
2024/02/21 12:02:03;;;;;;;7.85;1.60;;;;;;;12.05;58.71;96836.97;2075156;28;20200;-67
2024/02/21 12:03:05;;;;;;;5.50;1.40;;;;;;;12.18;57.82;96831.97;2073234;28;20201;-67
2024/02/21 12:04:06;;;;;;;8.68;2.10;;;;;;;12.32;57.06;96823.47;2074146;28;20362;-67
2024/02/21 12:05:08;;;;;;;6.13;1.67;;;;;;;12.53;56.96;96826.81;2077232;28;20208;-67
2024/02/21 12:06:09;;;;;;;6.43;1.33;;;;;;;12.49;56.63;96821.78;2075407;28;20205;-60
2024/02/21 12:07:12;;;;;;;3.20;1.30;;;;;;;12.56;58.39;96815.31;2075097;28;20251;-60
2024/02/21 12:08:13;;;;;;;8.60;1.70;;;;;;;12.68;57.89;96813.84;2075776;28;20239;-60